createdAt,value
2022-09-07T00:00:53.731Z,2.70
2022-09-07T00:03:21.080Z,2.63
2022-09-07T00:05:49.470Z,2.90
2022-09-07T00:08:18.136Z,2.50
2022-09-07T00:11:06.614Z,2.30
2022-09-07T00:13:35.847Z,2.47
2022-09-07T00:16:27.572Z,4.30
2022-09-07T00:18:55.724Z,3.17
2022-09-07T00:21:22.389Z,2.60
2022-09-07T00:23:50.278Z,2.63
2022-09-07T00:26:20.382Z,11.47
2022-09-07T00:28:47.291Z,14.43
2022-09-07T00:31:22.298Z,9.30
2022-09-07T00:33:50.640Z,22.10
2022-09-07T00:36:18.866Z,7.80
2022-09-07T00:38:45.698Z,20.43
2022-09-07T00:41:13.353Z,8.57
2022-09-07T00:43:45.437Z,4.90
2022-09-07T00:46:14.921Z,4.10
2022-09-07T00:49:02.806Z,8.40
2022-09-07T00:51:37.190Z,2.90
2022-09-07T00:54:11.042Z,6.73
2022-09-07T00:56:40.281Z,3.20
2022-09-07T00:59:07.695Z,6.20
2022-09-07T01:01:34.579Z,5.20
2022-09-07T01:04:02.083Z,8.50
2022-09-07T01:06:36.429Z,2.07
2022-09-07T01:09:06.999Z,4.73
2022-09-07T01:11:36.925Z,3.00
2022-09-07T01:14:07.033Z,2.67
2022-09-07T01:16:51.809Z,2.00
2022-09-07T01:19:24.651Z,2.17
2022-09-07T01:21:54.182Z,2.83
2022-09-07T01:24:42.871Z,5.40
2022-09-07T01:27:40.345Z,1.00
2022-09-07T01:30:10.119Z,3.10
2022-09-07T01:33:10.781Z,1.07
2022-09-07T01:35:44.862Z,2.10
2022-09-07T01:38:23.976Z,3.03
2022-09-07T01:41:04.866Z,1.67
2022-09-07T01:43:37.294Z,4.13
2022-09-07T01:46:06.833Z,7.80
2022-09-07T01:48:33.955Z,4.07
2022-09-07T01:51:03.031Z,2.20
2022-09-07T01:53:47.488Z,7.10
2022-09-07T01:56:19.443Z,2.80
2022-09-07T01:58:52.557Z,3.47
2022-09-07T02:01:28.482Z,2.83
2022-09-07T02:04:08.900Z,5.43
2022-09-07T02:06:48.422Z,2.17
2022-09-07T02:09:25.233Z,6.03
2022-09-07T02:11:52.112Z,2.67
2022-09-07T02:14:25.848Z,4.97
2022-09-07T02:17:06.863Z,4.03
2022-09-07T02:19:41.101Z,6.50
2022-09-07T02:22:14.748Z,12.27
2022-09-07T02:24:43.988Z,4.50
2022-09-07T02:27:19.766Z,3.20
2022-09-07T02:29:47.102Z,4.03
2022-09-07T02:32:13.771Z,4.60
2022-09-07T02:34:40.402Z,7.30
2022-09-07T02:37:09.011Z,4.10
2022-09-07T02:39:35.837Z,3.57
2022-09-07T02:42:03.001Z,3.10
2022-09-07T02:44:32.520Z,4.90
2022-09-07T02:47:20.900Z,2.73
2022-09-07T02:50:06.247Z,2.70
2022-09-07T02:52:42.923Z,2.17
2022-09-07T02:55:34.565Z,2.20
2022-09-07T02:58:16.390Z,3.60
2022-09-07T03:01:06.364Z,2.77
2022-09-07T03:03:48.368Z,4.57
2022-09-07T03:06:28.520Z,2.03
2022-09-07T03:08:58.174Z,3.90
2022-09-07T03:11:25.294Z,2.90
2022-09-07T03:13:51.859Z,4.97
2022-09-07T03:16:18.687Z,5.10
2022-09-07T03:18:45.423Z,1.97
2022-09-07T03:21:12.515Z,2.90
2022-09-07T03:23:39.133Z,2.40
2022-09-07T03:26:06.273Z,1.90
2022-09-07T03:28:32.899Z,3.83
2022-09-07T03:31:01.000Z,1.97
2022-09-07T03:33:27.982Z,2.87
2022-09-07T03:35:59.828Z,6.80
2022-09-07T03:38:26.910Z,2.13
2022-09-07T03:41:04.801Z,2.30
2022-09-07T03:43:32.258Z,5.83
2022-09-07T03:46:00.981Z,5.73
2022-09-07T03:48:31.084Z,2.70
2022-09-07T03:51:02.889Z,4.10
2022-09-07T03:53:37.653Z,2.83
2022-09-07T03:56:09.884Z,3.13
2022-09-07T03:58:36.563Z,4.53
2022-09-07T04:01:12.272Z,2.90
2022-09-07T04:03:39.715Z,3.63
2022-09-07T04:06:07.257Z,4.50
2022-09-07T04:08:35.591Z,5.57
2022-09-07T04:11:04.255Z,2.90
2022-09-07T04:13:31.710Z,2.43
2022-09-07T04:15:58.510Z,2.33
2022-09-07T04:18:25.445Z,2.43
2022-09-07T04:20:52.256Z,2.20
2022-09-07T04:23:19.672Z,2.50
2022-09-07T04:25:50.005Z,3.67
2022-09-07T04:28:17.638Z,2.60
2022-09-07T04:30:44.708Z,3.10
2022-09-07T04:33:11.590Z,2.73
2022-09-07T04:35:39.572Z,5.40
2022-09-07T04:38:07.057Z,2.50
2022-09-07T04:40:34.422Z,2.20
2022-09-07T04:43:01.079Z,3.37
2022-09-07T04:45:27.823Z,3.17
2022-09-07T04:47:54.395Z,2.67
2022-09-07T04:50:21.173Z,3.00
2022-09-07T04:52:47.706Z,2.90
2022-09-07T04:55:14.382Z,2.23
2022-09-07T04:57:41.025Z,2.30
2022-09-07T05:00:08.892Z,2.80
2022-09-07T05:02:35.591Z,3.93
2022-09-07T05:05:02.992Z,2.93
2022-09-07T05:07:30.124Z,4.83
2022-09-07T05:09:57.286Z,4.70
2022-09-07T05:12:24.024Z,3.90
2022-09-07T05:14:50.612Z,3.07
2022-09-07T05:17:17.262Z,3.20
2022-09-07T05:19:43.944Z,3.30
2022-09-07T05:22:10.932Z,2.97
2022-09-07T05:24:38.053Z,4.60
2022-09-07T05:27:04.882Z,2.83
2022-09-07T05:32:18.101Z,3.17
2022-09-07T05:34:45.465Z,2.77
2022-09-07T05:37:12.704Z,3.40
2022-09-07T05:39:39.259Z,3.80
2022-09-07T05:42:05.962Z,3.63
2022-09-07T05:44:48.103Z,3.20
2022-09-07T05:47:15.016Z,5.17
2022-09-07T05:49:41.665Z,3.00
2022-09-07T05:52:08.236Z,3.60
2022-09-07T05:54:35.111Z,7.10
2022-09-07T05:57:03.587Z,5.57
2022-09-07T05:59:30.292Z,4.10
2022-09-07T06:01:57.009Z,3.63
2022-09-07T06:04:23.878Z,3.50
2022-09-07T06:07:17.599Z,4.77
2022-09-07T06:12:24.443Z,4.70
2022-09-07T06:14:51.017Z,6.53
2022-09-07T06:17:17.546Z,5.83
2022-09-07T06:19:44.114Z,4.10
2022-09-07T06:22:10.663Z,4.73
2022-09-07T06:24:37.314Z,4.70
2022-09-07T06:27:04.602Z,3.93
2022-09-07T06:29:31.202Z,4.30
2022-09-07T06:34:44.669Z,4.40
2022-09-07T06:37:11.614Z,5.60
2022-09-07T06:39:38.182Z,6.47
2022-09-07T06:42:04.932Z,4.30
2022-09-07T06:44:31.564Z,8.70
2022-09-07T06:49:28.311Z,4.33
2022-09-07T06:51:55.057Z,4.63
2022-09-07T06:57:09.398Z,7.40
2022-09-07T06:59:36.922Z,5.80
2022-09-07T07:02:04.662Z,6.90
2022-09-07T07:04:32.401Z,5.03
2022-09-07T07:07:00.691Z,6.30
2022-09-07T07:09:27.232Z,4.60
2022-09-07T07:11:53.844Z,4.93
2022-09-07T07:14:21.206Z,5.20
2022-09-07T07:16:48.152Z,4.80
2022-09-07T07:19:15.396Z,8.67
2022-09-07T07:22:07.871Z,5.77
2022-09-07T07:24:28.970Z,4.37
2022-09-07T07:26:55.805Z,3.60
2022-09-07T07:29:24.031Z,4.47
2022-09-07T07:31:52.869Z,4.00
2022-09-07T07:34:19.457Z,4.60
2022-09-07T07:36:46.110Z,6.37
2022-09-07T07:42:03.502Z,5.10
2022-09-07T07:44:32.380Z,4.70
2022-09-07T07:46:59.042Z,7.73
2022-09-07T07:49:26.144Z,5.50
2022-09-07T07:54:43.433Z,2.80
2022-09-07T07:57:10.347Z,3.60
2022-09-07T07:59:37.001Z,4.40
2022-09-07T08:02:05.701Z,5.00
2022-09-07T08:04:33.881Z,3.43
2022-09-07T08:07:01.949Z,9.13
2022-09-07T08:09:30.076Z,3.67
2022-09-07T08:11:57.007Z,3.53
2022-09-07T08:14:23.532Z,3.73
2022-09-07T08:16:50.287Z,3.50
2022-09-07T08:19:16.832Z,3.63
2022-09-07T08:21:43.282Z,9.70
2022-09-07T08:24:10.067Z,3.40
2022-09-07T08:26:36.555Z,3.03
2022-09-07T08:29:03.314Z,3.97
2022-09-07T08:31:29.922Z,3.63
2022-09-07T08:33:56.646Z,7.10
2022-09-07T08:36:23.790Z,3.67
2022-09-07T08:38:50.460Z,3.40
2022-09-07T08:41:35.755Z,4.23
2022-09-07T08:44:12.290Z,8.43
2022-09-07T08:46:44.062Z,3.13
2022-09-07T08:49:17.710Z,2.80
2022-09-07T08:51:54.607Z,2.60
2022-09-07T08:54:21.190Z,2.83
2022-09-07T08:59:41.865Z,2.63
2022-09-07T09:02:36.559Z,3.43
2022-09-07T09:05:20.558Z,5.43
2022-09-07T09:07:57.383Z,2.83
2022-09-07T09:10:29.994Z,2.10
2022-09-07T09:12:58.779Z,2.40
2022-09-07T09:16:01.209Z,3.10
2022-09-07T09:18:39.959Z,2.17
2022-09-07T09:21:13.477Z,1.90
2022-09-07T09:23:41.864Z,3.00
2022-09-07T09:26:29.147Z,2.43
2022-09-07T09:28:55.839Z,4.70
2022-09-07T09:31:25.841Z,2.90
2022-09-07T09:34:13.677Z,4.80
2022-09-07T09:36:52.490Z,2.57
2022-09-07T09:39:36.153Z,2.67
2022-09-07T09:42:11.836Z,2.30
2022-09-07T09:44:38.701Z,2.40
2022-09-07T09:49:53.641Z,2.20
2022-09-07T09:52:31.785Z,2.47
2022-09-07T09:55:23.591Z,3.23
2022-09-07T10:01:21.131Z,2.40
2022-09-07T10:06:16.259Z,2.50
2022-09-07T10:08:55.391Z,2.37
2022-09-07T10:14:31.832Z,5.23
2022-09-07T10:16:59.144Z,2.47
2022-09-07T10:19:36.067Z,2.40
2022-09-07T10:22:05.127Z,2.63
2022-09-07T10:24:37.096Z,2.63
2022-09-07T10:27:24.267Z,2.30
2022-09-07T10:29:50.827Z,2.40
2022-09-07T10:32:23.405Z,2.50
2022-09-07T10:35:05.255Z,2.97
2022-09-07T10:37:59.391Z,2.60
2022-09-07T10:40:34.942Z,2.70
2022-09-07T10:43:23.393Z,2.57
2022-09-07T10:45:56.137Z,2.73
2022-09-07T10:48:34.955Z,2.60
2022-09-07T10:51:13.941Z,3.07
2022-09-07T10:54:30.707Z,2.40
2022-09-07T10:57:20.507Z,3.70
2022-09-07T11:00:10.070Z,2.73
2022-09-07T11:03:24.926Z,2.63
2022-09-07T11:05:36.041Z,2.30
2022-09-07T11:08:13.332Z,4.40
2022-09-07T11:10:47.144Z,2.57
2022-09-07T11:13:16.924Z,2.53
2022-09-07T11:15:48.010Z,2.03
2022-09-07T11:18:22.676Z,2.40
2022-09-07T11:20:55.349Z,2.20
2022-09-07T11:23:44.470Z,2.70
2022-09-07T11:26:38.178Z,3.70
2022-09-07T11:29:29.832Z,2.40
2022-09-07T11:32:04.679Z,6.40
2022-09-07T11:34:58.925Z,2.60
2022-09-07T11:37:46.491Z,3.00
2022-09-07T11:40:29.930Z,3.27
2022-09-07T11:43:05.245Z,3.10
2022-09-07T11:45:51.467Z,3.43
2022-09-07T11:48:21.837Z,4.23
2022-09-07T11:50:52.032Z,4.67
2022-09-07T11:53:21.996Z,5.53
2022-09-07T11:55:50.655Z,3.97
2022-09-07T11:58:48.189Z,5.07
2022-09-07T12:01:20.853Z,10.40
2022-09-07T12:04:02.074Z,5.47
2022-09-07T12:06:53.389Z,5.13
2022-09-07T12:09:35.109Z,4.50
2022-09-07T12:12:26.933Z,4.10
2022-09-07T12:15:03.219Z,4.50
2022-09-07T12:18:01.342Z,4.17
2022-09-07T12:20:48.406Z,5.33
2022-09-07T12:23:14.993Z,7.47
2022-09-07T12:25:43.639Z,3.87
2022-09-07T12:28:21.878Z,4.10
2022-09-07T12:30:59.532Z,3.53
2022-09-07T12:33:34.716Z,4.00
2022-09-07T12:36:02.463Z,5.13
2022-09-07T12:38:32.093Z,5.33
2022-09-07T12:41:00.713Z,4.27
2022-09-07T12:43:52.632Z,4.87
2022-09-07T12:46:40.404Z,6.50
2022-09-07T12:49:36.518Z,6.07
2022-09-07T12:52:21.855Z,7.33
2022-09-07T12:55:29.517Z,6.60
2022-09-07T12:58:24.883Z,6.50
2022-09-07T13:01:05.431Z,7.77
2022-09-07T13:03:51.372Z,6.10
2022-09-07T13:09:37.072Z,5.90
2022-09-07T13:15:31.658Z,5.10
2022-09-07T13:17:58.236Z,5.20
2022-09-07T13:20:30.220Z,5.17
2022-09-07T13:23:09.489Z,4.00
2022-09-07T13:25:45.597Z,4.27
2022-09-07T13:28:37.685Z,4.47
2022-09-07T13:31:16.613Z,5.63
2022-09-07T13:33:50.552Z,6.10
2022-09-07T13:36:25.730Z,4.83
2022-09-07T13:38:53.730Z,7.90
2022-09-07T13:41:29.966Z,6.87
2022-09-07T13:44:00.386Z,7.47
2022-09-07T13:46:39.307Z,7.33
2022-09-07T13:49:30.342Z,6.83
2022-09-07T13:52:18.220Z,7.00
2022-09-07T13:55:25.750Z,8.67
2022-09-07T13:58:26.543Z,5.83
2022-09-07T14:00:55.196Z,5.23
2022-09-07T14:03:24.355Z,4.50
2022-09-07T14:06:22.558Z,6.90
2022-09-07T14:08:55.009Z,5.93
2022-09-07T14:11:36.859Z,5.97
2022-09-07T14:14:14.315Z,5.67
2022-09-07T14:16:47.122Z,4.77
2022-09-07T14:19:24.093Z,4.80
2022-09-07T14:21:59.568Z,4.10
2022-09-07T14:24:36.249Z,4.20
2022-09-07T14:27:04.552Z,3.90
2022-09-07T14:29:33.355Z,3.43
2022-09-07T14:32:01.915Z,3.80
2022-09-07T14:34:32.193Z,3.97
2022-09-07T14:37:01.705Z,3.83
2022-09-07T14:39:35.633Z,3.83
2022-09-07T14:42:03.755Z,3.77
2022-09-07T14:44:39.390Z,4.23
2022-09-07T14:47:11.682Z,4.67
2022-09-07T14:49:38.763Z,5.40
2022-09-07T14:52:05.579Z,4.57
2022-09-07T14:54:33.956Z,4.80
2022-09-07T14:57:10.101Z,3.90
2022-09-07T14:59:42.320Z,3.90
2022-09-07T15:02:17.836Z,3.53
2022-09-07T15:04:49.362Z,3.27
2022-09-07T15:07:38.830Z,3.20
2022-09-07T15:10:20.846Z,4.57
2022-09-07T15:12:52.714Z,5.00
2022-09-07T15:15:21.777Z,6.73
2022-09-07T15:17:48.881Z,3.90
2022-09-07T15:20:44.279Z,4.57
2022-09-07T15:23:16.187Z,3.50
2022-09-07T15:25:49.681Z,3.57
2022-09-07T15:34:11.329Z,4.00
2022-09-07T15:36:40.764Z,2.93
2022-09-07T15:39:08.095Z,4.23
2022-09-07T15:41:34.871Z,3.90
2022-09-07T15:44:01.603Z,2.70
2022-09-07T15:46:28.393Z,2.70
2022-09-07T15:48:55.674Z,4.33
2022-09-07T15:54:14.240Z,4.37
2022-09-07T15:56:42.702Z,3.90
2022-09-07T15:59:10.502Z,3.67
2022-09-07T16:01:54.696Z,4.00
2022-09-07T16:04:24.139Z,4.40
2022-09-07T16:06:50.931Z,3.70
2022-09-07T16:09:21.121Z,4.83
2022-09-07T16:11:50.818Z,3.30
2022-09-07T16:14:17.726Z,3.90
2022-09-07T16:19:34.961Z,4.30
2022-09-07T16:22:03.134Z,4.90
2022-09-07T16:24:29.942Z,4.27
2022-09-07T16:26:56.514Z,3.80
2022-09-07T16:29:23.393Z,4.33
2022-09-07T16:34:36.627Z,4.80
2022-09-07T16:37:03.631Z,4.80
2022-09-07T16:39:30.316Z,4.43
2022-09-07T16:41:56.960Z,4.50
2022-09-07T16:44:23.767Z,5.27
2022-09-07T16:46:50.597Z,3.80
2022-09-07T16:49:17.708Z,4.20
2022-09-07T16:51:45.697Z,5.20
2022-09-07T16:54:17.031Z,3.50
2022-09-07T16:56:43.600Z,3.97
2022-09-07T16:59:15.890Z,4.13
2022-09-07T17:01:43.012Z,6.80
2022-09-07T17:04:11.177Z,6.57
2022-09-07T17:06:39.491Z,4.60
2022-09-07T17:09:06.823Z,4.70
2022-09-07T17:11:34.777Z,5.13
2022-09-07T17:14:01.861Z,5.00
2022-09-07T17:16:31.001Z,3.83
2022-09-07T17:21:50.117Z,5.13
2022-09-07T17:24:17.219Z,4.20
2022-09-07T17:26:43.933Z,5.23
2022-09-07T17:29:13.228Z,5.30
2022-09-07T17:34:26.625Z,4.50
2022-09-07T17:36:53.219Z,4.63
2022-09-07T17:39:20.236Z,4.80
2022-09-07T17:41:47.988Z,6.60
2022-09-07T17:44:14.702Z,5.17
2022-09-07T17:46:41.244Z,6.47
2022-09-07T17:49:12.143Z,6.40
2022-09-07T17:51:39.130Z,4.90
2022-09-07T17:54:10.873Z,4.87
2022-09-07T17:56:38.806Z,5.70
2022-09-07T18:01:54.072Z,6.20
2022-09-07T18:04:21.084Z,6.10
2022-09-07T18:06:47.730Z,6.73
2022-09-07T18:09:14.474Z,14.27
2022-09-07T18:11:47.216Z,7.00
2022-09-07T18:14:15.168Z,5.50
2022-09-07T18:16:43.357Z,7.50
2022-09-07T18:19:11.085Z,5.80
2022-09-07T18:21:39.309Z,6.13
2022-09-07T18:24:11.747Z,5.43
2022-09-07T18:26:39.805Z,6.80
2022-09-07T18:29:18.981Z,5.20
2022-09-07T18:31:53.046Z,5.13
2022-09-07T18:34:20.722Z,5.40
2022-09-07T18:36:47.354Z,5.23
2022-09-07T18:39:14.368Z,5.13
2022-09-07T18:41:42.154Z,5.07
2022-09-07T18:46:55.616Z,5.93
2022-09-07T18:49:22.117Z,5.27
2022-09-07T18:54:35.192Z,6.20
2022-09-07T18:57:01.689Z,6.27
2022-09-07T18:59:29.578Z,6.23
2022-09-07T19:02:00.138Z,6.70
2022-09-07T19:07:17.589Z,6.93
2022-09-07T19:09:44.273Z,6.33
2022-09-07T19:12:10.899Z,6.57
2022-09-07T19:14:37.496Z,6.60
2022-09-07T19:17:04.360Z,7.17
2022-09-07T19:19:31.335Z,7.50
2022-09-07T19:21:58.326Z,7.47
2022-09-07T19:24:25.729Z,7.60
2022-09-07T19:26:55.722Z,6.73
2022-09-07T19:29:25.165Z,7.70
2022-09-07T19:32:12.989Z,8.33
2022-09-07T19:34:41.475Z,6.67
2022-09-07T19:37:12.533Z,8.47
2022-09-07T19:39:39.733Z,7.97
2022-09-07T19:42:06.853Z,6.97
2022-09-07T19:44:33.618Z,6.87
2022-09-07T19:47:00.770Z,7.07
2022-09-07T19:49:28.160Z,8.73
2022-09-07T19:51:54.820Z,8.40
2022-09-07T19:54:21.382Z,8.30
2022-09-07T19:56:47.902Z,8.30
2022-09-07T19:59:14.707Z,7.87
2022-09-07T20:01:45.861Z,7.40
2022-09-07T20:04:19.491Z,8.97
2022-09-07T20:06:48.093Z,9.27
2022-09-07T20:09:14.831Z,8.47
2022-09-07T20:11:46.073Z,9.80
2022-09-07T20:14:17.631Z,11.43
2022-09-07T20:16:47.346Z,9.03
2022-09-07T20:19:17.354Z,9.53
2022-09-07T20:21:44.044Z,11.40
2022-09-07T20:24:12.189Z,10.73
2022-09-07T20:26:38.737Z,9.17
2022-09-07T20:29:26.200Z,9.03
2022-09-07T20:31:53.475Z,9.40
2022-09-07T20:34:20.158Z,11.00
2022-09-07T20:36:49.354Z,9.27
2022-09-07T20:39:16.692Z,10.53
2022-09-07T20:41:43.124Z,16.23
2022-09-07T20:44:09.671Z,12.27
2022-09-07T20:46:36.492Z,11.27
2022-09-07T20:49:03.784Z,10.70
2022-09-07T20:51:31.050Z,14.80
2022-09-07T20:53:57.860Z,13.60
2022-09-07T20:56:27.279Z,11.10
2022-09-07T20:58:55.926Z,10.60
2022-09-07T21:01:26.002Z,10.37
2022-09-07T21:03:54.526Z,10.60
2022-09-07T21:06:22.066Z,10.80
2022-09-07T21:08:49.407Z,11.33
2022-09-07T21:11:21.294Z,10.67
2022-09-07T21:13:48.373Z,10.80
2022-09-07T21:16:16.240Z,12.43
2022-09-07T21:18:44.296Z,11.17
2022-09-07T21:21:20.457Z,11.00
2022-09-07T21:23:47.861Z,13.43
2022-09-07T21:26:14.782Z,11.47
2022-09-07T21:28:41.310Z,12.93
2022-09-07T21:31:08.754Z,14.77
2022-09-07T21:33:36.276Z,11.97
2022-09-07T21:36:08.331Z,12.87
2022-09-07T21:38:35.971Z,14.30
2022-09-07T21:41:13.856Z,14.00
2022-09-07T21:43:40.976Z,13.73
2022-09-07T21:46:12.942Z,15.13
2022-09-07T21:48:39.643Z,14.30
2022-09-07T21:51:06.378Z,14.70
2022-09-07T21:53:33.261Z,17.83
2022-09-07T21:56:05.755Z,16.80
2022-09-07T21:58:33.099Z,16.63
2022-09-07T22:01:00.783Z,18.30
2022-09-07T22:03:27.587Z,17.90
2022-09-07T22:05:54.229Z,21.53
2022-09-07T22:08:20.748Z,22.00
2022-09-07T22:10:47.318Z,22.20
2022-09-07T22:13:14.015Z,23.77
2022-09-07T22:15:41.673Z,24.70
2022-09-07T22:18:11.648Z,23.63
2022-09-07T22:20:38.547Z,23.53
2022-09-07T22:23:05.603Z,25.47
2022-09-07T22:25:32.729Z,23.40
2022-09-07T22:27:59.638Z,24.23
2022-09-07T22:30:26.499Z,23.27
2022-09-07T22:32:53.078Z,24.37
2022-09-07T22:35:19.918Z,22.90
2022-09-07T22:37:46.499Z,22.90
2022-09-07T22:40:14.739Z,22.33
2022-09-07T22:42:41.939Z,22.60
2022-09-07T22:45:09.103Z,24.93
2022-09-07T22:47:35.642Z,23.60
2022-09-07T22:50:02.211Z,22.00
2022-09-07T22:52:28.979Z,23.67
2022-09-07T22:54:55.455Z,23.77
2022-09-07T22:57:21.993Z,22.50
2022-09-07T22:59:48.502Z,23.13
2022-09-07T23:02:14.961Z,26.47
2022-09-07T23:04:41.721Z,22.57
2022-09-07T23:07:08.300Z,22.63
2022-09-07T23:09:35.188Z,24.90
2022-09-07T23:12:01.975Z,24.10
2022-09-07T23:14:28.589Z,25.90
2022-09-07T23:16:55.174Z,26.27
2022-09-07T23:19:21.839Z,26.67
2022-09-07T23:21:51.283Z,24.10
2022-09-07T23:24:18.685Z,23.53
2022-09-07T23:26:46.931Z,25.13
2022-09-07T23:29:14.536Z,24.70
2022-09-07T23:31:41.771Z,26.50
2022-09-07T23:34:08.998Z,26.50
2022-09-07T23:36:36.680Z,26.53
2022-09-07T23:39:03.633Z,27.03
2022-09-07T23:41:30.501Z,26.60
2022-09-07T23:43:57.685Z,24.77
2022-09-07T23:46:24.562Z,27.67
2022-09-07T23:48:51.268Z,26.83
2022-09-07T23:51:23.481Z,26.90
2022-09-07T23:53:51.134Z,26.83
2022-09-07T23:56:17.684Z,27.47
2022-09-07T23:58:44.244Z,27.90
